sensor_id;sensor_type;location;lat;lon;timestamp;P1;durP1;ratioP1;P2;durP2;ratioP2
37349;SDS011;23231;52.358;4.926;2023-08-20T00:03:58;8.93;;;2.58;;
37349;SDS011;23231;52.358;4.926;2023-08-20T00:08:59;7.43;;;3.10;;
37349;SDS011;23231;52.358;4.926;2023-08-20T00:14:00;11.75;;;5.00;;
37349;SDS011;23231;52.358;4.926;2023-08-20T00:19:00;13.05;;;5.65;;
37349;SDS011;23231;52.358;4.926;2023-08-20T00:24:01;14.35;;;5.05;;
37349;SDS011;23231;52.358;4.926;2023-08-20T00:29:01;11.52;;;4.82;;
37349;SDS011;23231;52.358;4.926;2023-08-20T00:34:02;12.85;;;4.43;;
37349;SDS011;23231;52.358;4.926;2023-08-20T00:39:02;9.10;;;3.88;;
37349;SDS011;23231;52.358;4.926;2023-08-20T00:44:03;10.27;;;3.97;;
37349;SDS011;23231;52.358;4.926;2023-08-20T00:49:03;10.38;;;3.80;;
37349;SDS011;23231;52.358;4.926;2023-08-20T00:54:04;11.32;;;4.40;;
37349;SDS011;23231;52.358;4.926;2023-08-20T00:59:05;15.40;;;4.70;;
37349;SDS011;23231;52.358;4.926;2023-08-20T01:04:05;13.57;;;4.55;;
37349;SDS011;23231;52.358;4.926;2023-08-20T01:09:10;14.13;;;4.30;;
37349;SDS011;23231;52.358;4.926;2023-08-20T01:14:33;11.73;;;4.00;;
37349;SDS011;23231;52.358;4.926;2023-08-20T01:19:34;10.10;;;4.28;;
37349;SDS011;23231;52.358;4.926;2023-08-20T01:29:57;11.63;;;4.22;;
37349;SDS011;23231;52.358;4.926;2023-08-20T01:34:58;12.25;;;4.45;;
37349;SDS011;23231;52.358;4.926;2023-08-20T01:39:59;12.02;;;3.85;;
37349;SDS011;23231;52.358;4.926;2023-08-20T01:44:59;12.02;;;3.67;;
37349;SDS011;23231;52.358;4.926;2023-08-20T01:50:00;10.43;;;3.80;;
37349;SDS011;23231;52.358;4.926;2023-08-20T01:55:00;12.00;;;3.85;;
37349;SDS011;23231;52.358;4.926;2023-08-20T02:00:00;10.10;;;3.70;;
37349;SDS011;23231;52.358;4.926;2023-08-20T02:05:01;12.93;;;3.65;;
37349;SDS011;23231;52.358;4.926;2023-08-20T02:10:02;11.07;;;4.53;;
37349;SDS011;23231;52.358;4.926;2023-08-20T02:15:03;9.55;;;4.47;;
37349;SDS011;23231;52.358;4.926;2023-08-20T02:20:04;9.98;;;4.43;;
37349;SDS011;23231;52.358;4.926;2023-08-20T02:25:05;11.40;;;4.25;;
37349;SDS011;23231;52.358;4.926;2023-08-20T02:30:06;12.50;;;4.80;;
37349;SDS011;23231;52.358;4.926;2023-08-20T02:35:07;10.77;;;4.10;;
37349;SDS011;23231;52.358;4.926;2023-08-20T02:40:08;8.85;;;3.85;;
37349;SDS011;23231;52.358;4.926;2023-08-20T02:45:10;10.43;;;4.10;;
37349;SDS011;23231;52.358;4.926;2023-08-20T02:50:10;10.88;;;3.80;;
37349;SDS011;23231;52.358;4.926;2023-08-20T02:55:10;9.35;;;3.60;;
37349;SDS011;23231;52.358;4.926;2023-08-20T03:00:11;11.68;;;4.93;;
37349;SDS011;23231;52.358;4.926;2023-08-20T03:05:13;11.13;;;4.40;;
37349;SDS011;23231;52.358;4.926;2023-08-20T03:10:14;13.90;;;4.60;;
37349;SDS011;23231;52.358;4.926;2023-08-20T03:15:15;12.65;;;4.50;;
37349;SDS011;23231;52.358;4.926;2023-08-20T03:20:15;11.45;;;5.30;;
37349;SDS011;23231;52.358;4.926;2023-08-20T03:25:16;12.80;;;4.97;;
37349;SDS011;23231;52.358;4.926;2023-08-20T03:30:16;14.55;;;4.72;;
37349;SDS011;23231;52.358;4.926;2023-08-20T03:35:17;9.70;;;4.15;;
37349;SDS011;23231;52.358;4.926;2023-08-20T03:40:17;11.32;;;4.45;;
37349;SDS011;23231;52.358;4.926;2023-08-20T03:45:18;14.23;;;3.95;;
37349;SDS011;23231;52.358;4.926;2023-08-20T03:50:18;12.05;;;4.13;;
37349;SDS011;23231;52.358;4.926;2023-08-20T03:55:21;13.00;;;3.78;;
37349;SDS011;23231;52.358;4.926;2023-08-20T04:00:21;9.55;;;4.03;;
37349;SDS011;23231;52.358;4.926;2023-08-20T04:05:22;11.80;;;3.40;;
37349;SDS011;23231;52.358;4.926;2023-08-20T04:10:22;10.70;;;3.88;;
37349;SDS011;23231;52.358;4.926;2023-08-20T04:15:23;10.38;;;4.13;;
37349;SDS011;23231;52.358;4.926;2023-08-20T04:20:23;11.18;;;3.67;;
37349;SDS011;23231;52.358;4.926;2023-08-20T04:25:24;10.30;;;3.90;;
37349;SDS011;23231;52.358;4.926;2023-08-20T04:30:24;10.10;;;3.85;;
37349;SDS011;23231;52.358;4.926;2023-08-20T04:35:24;11.63;;;3.85;;
37349;SDS011;23231;52.358;4.926;2023-08-20T04:40:25;14.23;;;4.07;;
37349;SDS011;23231;52.358;4.926;2023-08-20T04:45:25;14.80;;;4.30;;
37349;SDS011;23231;52.358;4.926;2023-08-20T04:50:26;12.63;;;4.25;;
37349;SDS011;23231;52.358;4.926;2023-08-20T04:55:27;12.63;;;3.33;;
37349;SDS011;23231;52.358;4.926;2023-08-20T05:00:27;10.98;;;4.32;;
37349;SDS011;23231;52.358;4.926;2023-08-20T05:05:28;10.90;;;3.72;;
37349;SDS011;23231;52.358;4.926;2023-08-20T05:10:29;13.20;;;3.53;;
37349;SDS011;23231;52.358;4.926;2023-08-20T05:15:29;11.13;;;3.65;;
37349;SDS011;23231;52.358;4.926;2023-08-20T05:20:29;10.55;;;4.05;;
37349;SDS011;23231;52.358;4.926;2023-08-20T05:25:30;14.07;;;3.85;;
37349;SDS011;23231;52.358;4.926;2023-08-20T05:30:30;13.20;;;4.22;;
37349;SDS011;23231;52.358;4.926;2023-08-20T05:35:31;14.55;;;4.40;;
37349;SDS011;23231;52.358;4.926;2023-08-20T05:40:31;10.77;;;3.90;;
37349;SDS011;23231;52.358;4.926;2023-08-20T05:45:31;13.43;;;4.82;;
37349;SDS011;23231;52.358;4.926;2023-08-20T05:50:32;13.48;;;4.53;;
37349;SDS011;23231;52.358;4.926;2023-08-20T05:55:32;14.40;;;4.80;;
37349;SDS011;23231;52.358;4.926;2023-08-20T06:00:33;10.50;;;4.05;;
37349;SDS011;23231;52.358;4.926;2023-08-20T06:05:33;12.23;;;3.80;;
37349;SDS011;23231;52.358;4.926;2023-08-20T06:10:34;11.82;;;5.13;;
37349;SDS011;23231;52.358;4.926;2023-08-20T06:15:34;11.35;;;3.97;;
37349;SDS011;23231;52.358;4.926;2023-08-20T06:20:34;12.10;;;3.85;;
37349;SDS011;23231;52.358;4.926;2023-08-20T06:25:35;15.45;;;4.28;;
37349;SDS011;23231;52.358;4.926;2023-08-20T06:30:35;12.00;;;3.92;;
37349;SDS011;23231;52.358;4.926;2023-08-20T06:35:36;13.98;;;3.90;;
37349;SDS011;23231;52.358;4.926;2023-08-20T06:40:36;13.82;;;4.15;;
37349;SDS011;23231;52.358;4.926;2023-08-20T06:45:37;14.98;;;3.97;;
37349;SDS011;23231;52.358;4.926;2023-08-20T06:50:37;14.25;;;3.72;;
37349;SDS011;23231;52.358;4.926;2023-08-20T06:55:37;14.02;;;4.03;;
37349;SDS011;23231;52.358;4.926;2023-08-20T07:00:38;16.17;;;3.75;;
37349;SDS011;23231;52.358;4.926;2023-08-20T07:05:38;15.07;;;3.58;;
37349;SDS011;23231;52.358;4.926;2023-08-20T07:10:39;12.82;;;3.45;;
37349;SDS011;23231;52.358;4.926;2023-08-20T07:15:39;11.75;;;3.53;;
37349;SDS011;23231;52.358;4.926;2023-08-20T07:20:40;13.80;;;3.63;;
37349;SDS011;23231;52.358;4.926;2023-08-20T07:25:42;13.90;;;3.15;;
37349;SDS011;23231;52.358;4.926;2023-08-20T07:30:42;15.85;;;2.97;;
37349;SDS011;23231;52.358;4.926;2023-08-20T07:35:42;9.93;;;2.40;;
37349;SDS011;23231;52.358;4.926;2023-08-20T07:40:43;11.65;;;2.67;;
37349;SDS011;23231;52.358;4.926;2023-08-20T07:45:43;9.50;;;2.83;;
37349;SDS011;23231;52.358;4.926;2023-08-20T07:50:44;12.38;;;3.33;;
37349;SDS011;23231;52.358;4.926;2023-08-20T07:55:44;15.68;;;3.38;;
37349;SDS011;23231;52.358;4.926;2023-08-20T08:00:44;13.45;;;2.55;;
37349;SDS011;23231;52.358;4.926;2023-08-20T08:05:48;10.23;;;2.67;;
37349;SDS011;23231;52.358;4.926;2023-08-20T08:10:49;9.77;;;3.08;;
37349;SDS011;23231;52.358;4.926;2023-08-20T08:15:50;12.15;;;2.22;;
37349;SDS011;23231;52.358;4.926;2023-08-20T08:20:50;9.05;;;2.72;;
37349;SDS011;23231;52.358;4.926;2023-08-20T08:25:51;7.05;;;2.38;;
37349;SDS011;23231;52.358;4.926;2023-08-20T08:30:51;9.98;;;2.40;;
37349;SDS011;23231;52.358;4.926;2023-08-20T08:35:52;11.95;;;2.88;;
37349;SDS011;23231;52.358;4.926;2023-08-20T08:40:52;8.43;;;2.15;;
37349;SDS011;23231;52.358;4.926;2023-08-20T08:45:52;11.52;;;2.80;;
37349;SDS011;23231;52.358;4.926;2023-08-20T08:50:55;8.77;;;2.58;;
37349;SDS011;23231;52.358;4.926;2023-08-20T08:55:55;9.73;;;2.13;;
37349;SDS011;23231;52.358;4.926;2023-08-20T09:00:56;8.57;;;2.10;;
37349;SDS011;23231;52.358;4.926;2023-08-20T09:05:58;11.52;;;2.40;;
37349;SDS011;23231;52.358;4.926;2023-08-20T09:11:00;8.82;;;2.28;;
37349;SDS011;23231;52.358;4.926;2023-08-20T09:16:05;9.77;;;2.42;;
37349;SDS011;23231;52.358;4.926;2023-08-20T09:21:10;8.70;;;2.17;;
37349;SDS011;23231;52.358;4.926;2023-08-20T09:31:14;7.70;;;1.92;;
37349;SDS011;23231;52.358;4.926;2023-08-20T09:36:15;9.95;;;2.42;;
37349;SDS011;23231;52.358;4.926;2023-08-20T09:41:15;5.40;;;1.90;;
37349;SDS011;23231;52.358;4.926;2023-08-20T09:46:16;10.50;;;2.15;;
37349;SDS011;23231;52.358;4.926;2023-08-20T09:51:18;8.18;;;1.67;;
37349;SDS011;23231;52.358;4.926;2023-08-20T09:56:22;6.40;;;1.73;;
37349;SDS011;23231;52.358;4.926;2023-08-20T10:01:29;6.95;;;1.67;;
37349;SDS011;23231;52.358;4.926;2023-08-20T10:06:30;7.00;;;1.50;;
37349;SDS011;23231;52.358;4.926;2023-08-20T10:11:34;8.90;;;1.85;;
37349;SDS011;23231;52.358;4.926;2023-08-20T10:16:34;9.82;;;2.20;;
37349;SDS011;23231;52.358;4.926;2023-08-20T10:27:07;10.93;;;2.38;;
37349;SDS011;23231;52.358;4.926;2023-08-20T10:32:11;4.72;;;1.52;;
37349;SDS011;23231;52.358;4.926;2023-08-20T10:37:12;7.93;;;1.60;;
37349;SDS011;23231;52.358;4.926;2023-08-20T10:47:19;4.35;;;1.55;;
37349;SDS011;23231;52.358;4.926;2023-08-20T10:52:22;5.95;;;1.48;;
37349;SDS011;23231;52.358;4.926;2023-08-20T10:57:31;5.72;;;2.00;;
37349;SDS011;23231;52.358;4.926;2023-08-20T11:02:33;4.22;;;1.38;;
37349;SDS011;23231;52.358;4.926;2023-08-20T11:07:33;5.70;;;1.55;;
37349;SDS011;23231;52.358;4.926;2023-08-20T11:12:34;7.03;;;1.77;;
37349;SDS011;23231;52.358;4.926;2023-08-20T11:17:35;5.45;;;1.38;;
37349;SDS011;23231;52.358;4.926;2023-08-20T11:22:40;6.10;;;1.90;;
37349;SDS011;23231;52.358;4.926;2023-08-20T11:27:41;8.68;;;1.67;;
37349;SDS011;23231;52.358;4.926;2023-08-20T11:32:42;6.10;;;1.20;;
37349;SDS011;23231;52.358;4.926;2023-08-20T11:37:44;8.70;;;1.45;;
37349;SDS011;23231;52.358;4.926;2023-08-20T11:42:44;5.75;;;1.25;;
37349;SDS011;23231;52.358;4.926;2023-08-20T11:47:45;7.70;;;1.40;;
37349;SDS011;23231;52.358;4.926;2023-08-20T11:52:45;6.70;;;1.45;;
37349;SDS011;23231;52.358;4.926;2023-08-20T11:57:49;3.08;;;1.10;;
37349;SDS011;23231;52.358;4.926;2023-08-20T12:02:53;4.70;;;1.50;;
37349;SDS011;23231;52.358;4.926;2023-08-20T12:07:59;8.27;;;2.70;;
37349;SDS011;23231;52.358;4.926;2023-08-20T12:13:00;6.32;;;1.30;;
37349;SDS011;23231;52.358;4.926;2023-08-20T12:18:02;5.45;;;1.10;;
37349;SDS011;23231;52.358;4.926;2023-08-20T12:23:05;7.03;;;1.70;;
37349;SDS011;23231;52.358;4.926;2023-08-20T12:28:06;4.93;;;1.55;;
37349;SDS011;23231;52.358;4.926;2023-08-20T12:33:07;3.45;;;0.90;;
37349;SDS011;23231;52.358;4.926;2023-08-20T12:38:07;4.75;;;0.93;;
37349;SDS011;23231;52.358;4.926;2023-08-20T12:43:08;3.97;;;1.42;;
37349;SDS011;23231;52.358;4.926;2023-08-20T12:48:08;4.80;;;1.20;;
37349;SDS011;23231;52.358;4.926;2023-08-20T12:53:09;5.43;;;1.33;;
37349;SDS011;23231;52.358;4.926;2023-08-20T12:58:10;2.95;;;1.13;;
37349;SDS011;23231;52.358;4.926;2023-08-20T13:03:10;5.35;;;1.20;;
37349;SDS011;23231;52.358;4.926;2023-08-20T13:08:11;6.75;;;1.10;;
37349;SDS011;23231;52.358;4.926;2023-08-20T13:13:12;5.32;;;1.10;;
37349;SDS011;23231;52.358;4.926;2023-08-20T13:18:13;6.05;;;1.50;;
37349;SDS011;23231;52.358;4.926;2023-08-20T13:23:16;6.13;;;1.70;;
37349;SDS011;23231;52.358;4.926;2023-08-20T13:28:17;6.18;;;1.30;;
37349;SDS011;23231;52.358;4.926;2023-08-20T13:33:18;8.50;;;1.95;;
37349;SDS011;23231;52.358;4.926;2023-08-20T13:38:18;6.28;;;2.00;;
37349;SDS011;23231;52.358;4.926;2023-08-20T13:43:22;6.57;;;2.80;;
37349;SDS011;23231;52.358;4.926;2023-08-20T13:48:23;5.50;;;1.40;;
37349;SDS011;23231;52.358;4.926;2023-08-20T13:53:23;4.88;;;1.88;;
37349;SDS011;23231;52.358;4.926;2023-08-20T13:58:24;5.97;;;2.35;;
37349;SDS011;23231;52.358;4.926;2023-08-20T14:03:24;6.15;;;1.33;;
37349;SDS011;23231;52.358;4.926;2023-08-20T14:08:25;5.25;;;1.80;;
37349;SDS011;23231;52.358;4.926;2023-08-20T14:13:25;5.90;;;1.60;;
37349;SDS011;23231;52.358;4.926;2023-08-20T14:18:25;4.88;;;1.10;;
37349;SDS011;23231;52.358;4.926;2023-08-20T14:23:26;6.25;;;1.42;;
37349;SDS011;23231;52.358;4.926;2023-08-20T14:28:27;7.00;;;2.47;;
37349;SDS011;23231;52.358;4.926;2023-08-20T14:33:28;6.30;;;2.45;;
37349;SDS011;23231;52.358;4.926;2023-08-20T14:38:31;5.88;;;1.40;;
37349;SDS011;23231;52.358;4.926;2023-08-20T14:43:32;5.47;;;1.40;;
37349;SDS011;23231;52.358;4.926;2023-08-20T14:48:32;5.72;;;1.30;;
37349;SDS011;23231;52.358;4.926;2023-08-20T14:53:34;4.55;;;1.15;;
37349;SDS011;23231;52.358;4.926;2023-08-20T14:58:34;5.25;;;1.42;;
37349;SDS011;23231;52.358;4.926;2023-08-20T15:03:34;5.45;;;1.70;;
37349;SDS011;23231;52.358;4.926;2023-08-20T15:08:35;3.90;;;1.05;;
37349;SDS011;23231;52.358;4.926;2023-08-20T15:13:35;8.43;;;2.42;;
37349;SDS011;23231;52.358;4.926;2023-08-20T15:18:36;7.07;;;1.90;;
37349;SDS011;23231;52.358;4.926;2023-08-20T15:23:36;4.47;;;1.40;;
37349;SDS011;23231;52.358;4.926;2023-08-20T15:28:38;7.28;;;2.30;;
37349;SDS011;23231;52.358;4.926;2023-08-20T15:33:39;6.30;;;1.83;;
37349;SDS011;23231;52.358;4.926;2023-08-20T15:38:39;4.10;;;1.40;;
37349;SDS011;23231;52.358;4.926;2023-08-20T15:43:40;4.78;;;1.77;;
37349;SDS011;23231;52.358;4.926;2023-08-20T15:48:41;7.07;;;2.00;;
37349;SDS011;23231;52.358;4.926;2023-08-20T15:53:41;9.75;;;3.67;;
37349;SDS011;23231;52.358;4.926;2023-08-20T15:58:42;4.22;;;1.70;;
37349;SDS011;23231;52.358;4.926;2023-08-20T16:03:42;7.90;;;2.60;;
37349;SDS011;23231;52.358;4.926;2023-08-20T16:08:43;6.55;;;1.60;;
37349;SDS011;23231;52.358;4.926;2023-08-20T16:13:43;13.63;;;4.53;;
37349;SDS011;23231;52.358;4.926;2023-08-20T16:18:46;5.43;;;1.77;;
37349;SDS011;23231;52.358;4.926;2023-08-20T16:23:47;4.43;;;1.27;;
37349;SDS011;23231;52.358;4.926;2023-08-20T16:28:47;5.47;;;1.35;;
37349;SDS011;23231;52.358;4.926;2023-08-20T16:33:48;6.70;;;1.60;;
37349;SDS011;23231;52.358;4.926;2023-08-20T16:38:48;7.10;;;1.63;;
37349;SDS011;23231;52.358;4.926;2023-08-20T16:43:48;6.07;;;2.00;;
37349;SDS011;23231;52.358;4.926;2023-08-20T16:48:49;6.65;;;1.63;;
37349;SDS011;23231;52.358;4.926;2023-08-20T16:53:49;7.03;;;2.25;;
37349;SDS011;23231;52.358;4.926;2023-08-20T16:58:50;9.38;;;3.80;;
37349;SDS011;23231;52.358;4.926;2023-08-20T17:03:52;11.00;;;4.35;;
37349;SDS011;23231;52.358;4.926;2023-08-20T17:08:53;10.30;;;4.05;;
37349;SDS011;23231;52.358;4.926;2023-08-20T17:13:53;6.90;;;2.10;;
37349;SDS011;23231;52.358;4.926;2023-08-20T17:18:54;6.68;;;1.95;;
37349;SDS011;23231;52.358;4.926;2023-08-20T17:23:54;5.50;;;1.48;;
37349;SDS011;23231;52.358;4.926;2023-08-20T17:28:55;3.83;;;1.25;;
37349;SDS011;23231;52.358;4.926;2023-08-20T17:33:55;4.75;;;1.58;;
37349;SDS011;23231;52.358;4.926;2023-08-20T17:38:55;4.75;;;1.40;;
37349;SDS011;23231;52.358;4.926;2023-08-20T17:43:56;8.00;;;3.05;;
37349;SDS011;23231;52.358;4.926;2023-08-20T17:48:56;5.70;;;1.77;;
37349;SDS011;23231;52.358;4.926;2023-08-20T17:53:57;6.05;;;2.30;;
37349;SDS011;23231;52.358;4.926;2023-08-20T17:58:57;6.32;;;1.77;;
37349;SDS011;23231;52.358;4.926;2023-08-20T18:03:57;7.35;;;1.75;;
37349;SDS011;23231;52.358;4.926;2023-08-20T18:08:58;6.72;;;1.80;;
37349;SDS011;23231;52.358;4.926;2023-08-20T18:13:59;10.80;;;4.53;;
37349;SDS011;23231;52.358;4.926;2023-08-20T18:18:59;8.65;;;4.07;;
37349;SDS011;23231;52.358;4.926;2023-08-20T18:24:00;6.35;;;2.10;;
37349;SDS011;23231;52.358;4.926;2023-08-20T18:29:00;7.53;;;2.13;;
37349;SDS011;23231;52.358;4.926;2023-08-20T18:34:01;8.93;;;3.55;;
37349;SDS011;23231;52.358;4.926;2023-08-20T18:39:01;9.88;;;3.95;;
37349;SDS011;23231;52.358;4.926;2023-08-20T18:44:04;9.07;;;2.58;;
37349;SDS011;23231;52.358;4.926;2023-08-20T18:49:04;7.32;;;2.00;;
37349;SDS011;23231;52.358;4.926;2023-08-20T18:54:05;13.25;;;4.20;;
37349;SDS011;23231;52.358;4.926;2023-08-20T18:59:05;14.05;;;5.45;;
37349;SDS011;23231;52.358;4.926;2023-08-20T19:04:06;5.85;;;2.38;;
37349;SDS011;23231;52.358;4.926;2023-08-20T19:09:07;7.95;;;2.95;;
37349;SDS011;23231;52.358;4.926;2023-08-20T19:14:08;7.03;;;2.78;;
37349;SDS011;23231;52.358;4.926;2023-08-20T19:19:08;13.48;;;5.50;;
37349;SDS011;23231;52.358;4.926;2023-08-20T19:24:09;10.32;;;2.85;;
37349;SDS011;23231;52.358;4.926;2023-08-20T19:29:10;7.90;;;2.72;;
37349;SDS011;23231;52.358;4.926;2023-08-20T19:34:10;7.45;;;2.10;;
37349;SDS011;23231;52.358;4.926;2023-08-20T19:39:11;6.50;;;2.85;;
37349;SDS011;23231;52.358;4.926;2023-08-20T19:44:11;5.80;;;2.45;;
37349;SDS011;23231;52.358;4.926;2023-08-20T19:49:12;7.10;;;2.33;;
37349;SDS011;23231;52.358;4.926;2023-08-20T19:54:12;7.10;;;2.90;;
37349;SDS011;23231;52.358;4.926;2023-08-20T19:59:13;9.27;;;3.13;;
37349;SDS011;23231;52.358;4.926;2023-08-20T20:04:14;5.75;;;2.55;;
37349;SDS011;23231;52.358;4.926;2023-08-20T20:09:14;8.15;;;2.75;;
37349;SDS011;23231;52.358;4.926;2023-08-20T20:14:15;8.98;;;2.80;;
37349;SDS011;23231;52.358;4.926;2023-08-20T20:19:15;5.50;;;2.20;;
37349;SDS011;23231;52.358;4.926;2023-08-20T20:24:16;7.72;;;2.80;;
37349;SDS011;23231;52.358;4.926;2023-08-20T20:29:19;5.75;;;2.45;;
37349;SDS011;23231;52.358;4.926;2023-08-20T20:34:19;6.80;;;1.98;;
37349;SDS011;23231;52.358;4.926;2023-08-20T20:39:20;7.65;;;2.75;;
37349;SDS011;23231;52.358;4.926;2023-08-20T20:44:20;8.40;;;2.45;;
37349;SDS011;23231;52.358;4.926;2023-08-20T20:49:21;8.95;;;3.17;;
37349;SDS011;23231;52.358;4.926;2023-08-20T20:54:21;11.88;;;5.15;;
37349;SDS011;23231;52.358;4.926;2023-08-20T20:59:21;8.20;;;3.90;;
37349;SDS011;23231;52.358;4.926;2023-08-20T21:04:22;8.40;;;2.88;;
37349;SDS011;23231;52.358;4.926;2023-08-20T21:09:22;10.68;;;4.53;;
37349;SDS011;23231;52.358;4.926;2023-08-20T21:14:23;11.45;;;3.83;;
37349;SDS011;23231;52.358;4.926;2023-08-20T21:19:23;7.55;;;3.10;;
37349;SDS011;23231;52.358;4.926;2023-08-20T21:24:24;11.07;;;3.30;;
37349;SDS011;23231;52.358;4.926;2023-08-20T21:29:24;8.85;;;3.75;;
37349;SDS011;23231;52.358;4.926;2023-08-20T21:34:24;13.25;;;4.70;;
37349;SDS011;23231;52.358;4.926;2023-08-20T21:39:25;10.68;;;4.90;;
37349;SDS011;23231;52.358;4.926;2023-08-20T21:44:26;10.23;;;3.75;;
37349;SDS011;23231;52.358;4.926;2023-08-20T21:49:26;8.93;;;3.85;;
37349;SDS011;23231;52.358;4.926;2023-08-20T21:54:27;8.00;;;3.67;;
37349;SDS011;23231;52.358;4.926;2023-08-20T21:59:27;9.30;;;3.60;;
37349;SDS011;23231;52.358;4.926;2023-08-20T22:04:31;7.65;;;3.20;;
37349;SDS011;23231;52.358;4.926;2023-08-20T22:09:32;10.73;;;3.30;;
37349;SDS011;23231;52.358;4.926;2023-08-20T22:14:33;7.68;;;2.85;;
37349;SDS011;23231;52.358;4.926;2023-08-20T22:19:33;8.32;;;3.38;;
37349;SDS011;23231;52.358;4.926;2023-08-20T22:24:36;10.38;;;3.35;;
37349;SDS011;23231;52.358;4.926;2023-08-20T22:29:36;8.10;;;3.30;;
37349;SDS011;23231;52.358;4.926;2023-08-20T22:34:36;9.45;;;3.63;;
37349;SDS011;23231;52.358;4.926;2023-08-20T22:39:37;11.60;;;4.32;;
37349;SDS011;23231;52.358;4.926;2023-08-20T22:44:37;6.72;;;3.78;;
37349;SDS011;23231;52.358;4.926;2023-08-20T22:49:38;7.80;;;3.78;;
37349;SDS011;23231;52.358;4.926;2023-08-20T22:54:38;7.32;;;3.60;;
37349;SDS011;23231;52.358;4.926;2023-08-20T22:59:39;5.97;;;3.20;;
37349;SDS011;23231;52.358;4.926;2023-08-20T23:04:39;8.55;;;3.35;;
37349;SDS011;23231;52.358;4.926;2023-08-20T23:09:40;8.88;;;3.70;;
37349;SDS011;23231;52.358;4.926;2023-08-20T23:14:40;10.35;;;3.92;;
37349;SDS011;23231;52.358;4.926;2023-08-20T23:19:40;7.93;;;3.67;;
37349;SDS011;23231;52.358;4.926;2023-08-20T23:24:41;7.43;;;3.10;;
37349;SDS011;23231;52.358;4.926;2023-08-20T23:29:42;7.65;;;2.75;;
37349;SDS011;23231;52.358;4.926;2023-08-20T23:34:42;7.03;;;2.83;;
37349;SDS011;23231;52.358;4.926;2023-08-20T23:39:43;8.52;;;3.47;;
37349;SDS011;23231;52.358;4.926;2023-08-20T23:44:43;8.38;;;3.38;;
37349;SDS011;23231;52.358;4.926;2023-08-20T23:49:43;9.38;;;3.20;;
37349;SDS011;23231;52.358;4.926;2023-08-20T23:54:44;8.98;;;3.35;;
37349;SDS011;23231;52.358;4.926;2023-08-20T23:59:44;7.95;;;2.30;;
